createdAt,value
2023-02-11T00:01:42.586Z,3.60
2023-02-11T00:04:10.452Z,3.58
2023-02-11T00:06:38.333Z,3.56
2023-02-11T00:09:07.324Z,3.50
2023-02-11T00:11:35.134Z,3.50
2023-02-11T00:14:07.860Z,3.50
2023-02-11T00:16:37.401Z,3.46
2023-02-11T00:19:06.566Z,3.48
2023-02-11T00:21:35.387Z,3.42
2023-02-11T00:24:03.520Z,3.40
2023-02-11T00:26:35.259Z,3.46
2023-02-11T00:29:04.531Z,3.50
2023-02-11T00:31:33.081Z,3.50
2023-02-11T00:34:03.827Z,3.50
2023-02-11T00:36:31.804Z,3.40
2023-02-11T00:39:00.179Z,3.48
2023-02-11T00:41:29.267Z,3.50
2023-02-11T00:43:57.318Z,3.50
2023-02-11T00:46:25.360Z,3.50
2023-02-11T00:48:57.581Z,3.50
2023-02-11T00:51:27.722Z,3.50
2023-02-11T00:53:55.575Z,3.56
2023-02-11T00:56:24.494Z,3.60
2023-02-11T00:58:53.402Z,3.60
2023-02-11T01:01:21.190Z,3.60
2023-02-11T01:03:49.047Z,3.60
2023-02-11T01:06:17.553Z,3.60
2023-02-11T01:08:45.478Z,3.60
2023-02-11T01:11:19.793Z,3.52
2023-02-11T01:13:49.412Z,3.50
2023-02-11T01:16:19.035Z,3.50
2023-02-11T01:18:47.514Z,3.50
2023-02-11T01:21:16.181Z,3.50
2023-02-11T01:23:44.252Z,3.50
2023-02-11T01:26:13.570Z,3.50
2023-02-11T01:28:41.591Z,3.50
2023-02-11T01:31:09.544Z,3.50
2023-02-11T01:33:37.331Z,3.50
2023-02-11T01:36:08.613Z,3.50
2023-02-11T01:38:36.749Z,3.50
2023-02-11T01:41:09.566Z,3.50
2023-02-11T01:43:42.653Z,3.50
2023-02-11T01:46:34.482Z,3.50
2023-02-11T01:49:20.752Z,3.48
2023-02-11T01:52:15.148Z,3.40
2023-02-11T01:55:06.705Z,3.40
2023-02-11T01:57:38.305Z,3.44
2023-02-11T02:00:41.665Z,3.40
2023-02-11T02:05:17.684Z,3.48
2023-02-11T02:07:59.175Z,3.48
2023-02-11T02:10:29.175Z,3.46
2023-02-11T02:12:57.193Z,3.40
2023-02-11T02:15:33.728Z,3.40
2023-02-11T02:18:32.200Z,3.40
2023-02-11T02:21:32.392Z,3.40
2023-02-11T02:25:01.162Z,3.40
2023-02-11T02:27:56.885Z,3.40
2023-02-11T02:30:46.774Z,3.32
2023-02-11T02:33:37.882Z,3.30
2023-02-11T02:36:34.443Z,3.30
2023-02-11T02:39:13.338Z,3.30
2023-02-11T02:41:41.733Z,3.30
2023-02-11T02:44:09.584Z,3.30
2023-02-11T02:46:37.862Z,3.22
2023-02-11T02:49:13.008Z,3.20
2023-02-11T02:52:31.296Z,3.20
2023-02-11T02:55:17.809Z,3.22
2023-02-11T02:58:29.660Z,3.20
2023-02-11T03:01:12.844Z,3.20
2023-02-11T03:04:06.022Z,3.20
2023-02-11T03:06:38.038Z,3.20
2023-02-11T03:09:22.595Z,3.20
2023-02-11T03:11:50.337Z,3.22
2023-02-11T03:14:24.165Z,3.22
2023-02-11T03:16:54.449Z,3.30
2023-02-11T03:19:35.601Z,3.26
2023-02-11T03:22:08.175Z,3.30
2023-02-11T03:24:39.710Z,3.30
2023-02-11T03:27:28.908Z,3.30
2023-02-11T03:30:30.634Z,3.30
2023-02-11T03:33:08.847Z,3.30
2023-02-11T03:35:45.156Z,3.30
2023-02-11T03:38:38.120Z,3.30
2023-02-11T03:41:08.443Z,3.30
2023-02-11T03:43:45.514Z,3.30
2023-02-11T03:46:18.253Z,3.30
2023-02-11T03:48:58.925Z,3.30
2023-02-11T03:51:29.302Z,3.30
2023-02-11T03:54:04.712Z,3.30
2023-02-11T03:56:41.412Z,3.30
2023-02-11T03:59:09.234Z,3.30
2023-02-11T04:01:37.227Z,3.30
2023-02-11T04:04:05.512Z,3.30
2023-02-11T04:06:33.373Z,3.30
2023-02-11T04:09:01.207Z,3.30
2023-02-11T04:11:29.142Z,3.30
2023-02-11T04:13:56.935Z,3.30
2023-02-11T04:16:24.895Z,3.30
2023-02-11T04:18:53.012Z,3.24
2023-02-11T04:21:20.905Z,3.20
2023-02-11T04:23:49.045Z,3.20
2023-02-11T04:26:17.109Z,3.20
2023-02-11T04:28:44.857Z,3.14
2023-02-11T04:31:12.946Z,3.14
2023-02-11T04:33:40.926Z,3.10
2023-02-11T04:36:08.776Z,3.10
2023-02-11T04:38:36.519Z,3.10
2023-02-11T04:41:07.335Z,3.10
2023-02-11T04:43:35.181Z,3.10
2023-02-11T04:46:03.070Z,3.10
2023-02-11T04:48:30.919Z,3.10
2023-02-11T04:50:58.743Z,3.10
2023-02-11T04:53:26.539Z,3.06
2023-02-11T04:55:54.958Z,3.10
2023-02-11T04:58:22.869Z,3.06
2023-02-11T05:00:50.773Z,3.06
2023-02-11T05:03:18.796Z,3.00
2023-02-11T05:05:46.603Z,3.00
2023-02-11T05:08:14.535Z,3.00
2023-02-11T05:10:47.688Z,3.00
2023-02-11T05:13:15.596Z,3.00
2023-02-11T05:15:43.372Z,3.00
2023-02-11T05:18:11.412Z,3.02
2023-02-11T05:20:39.360Z,3.10
2023-02-11T05:23:07.158Z,3.10
2023-02-11T05:25:35.349Z,3.10
2023-02-11T05:28:04.906Z,3.10
2023-02-11T05:30:35.389Z,3.10
2023-02-11T05:33:03.243Z,3.10
2023-02-11T05:35:30.996Z,3.10
2023-02-11T05:37:58.832Z,3.10
2023-02-11T05:40:26.696Z,3.10
2023-02-11T05:42:54.482Z,3.10
2023-02-11T05:45:22.372Z,3.10
2023-02-11T05:47:50.162Z,3.10
2023-02-11T05:50:18.245Z,3.10
2023-02-11T05:52:46.108Z,3.10
2023-02-11T05:55:14.145Z,3.10
